sensor_id;sensor_type;location;lat;lon;timestamp;P1;durP1;ratioP1;P2;durP2;ratioP2
15635;SDS011;7917;50.818;6.972;2023-11-19T00:00:21;3.92;;;1.45;;
15635;SDS011;7917;50.818;6.972;2023-11-19T00:02:49;2.05;;;1.10;;
15635;SDS011;7917;50.818;6.972;2023-11-19T00:05:17;2.25;;;1.23;;
15635;SDS011;7917;50.818;6.972;2023-11-19T00:07:45;3.10;;;1.40;;
15635;SDS011;7917;50.818;6.972;2023-11-19T00:10:14;4.78;;;1.52;;
15635;SDS011;7917;50.818;6.972;2023-11-19T00:12:44;3.72;;;1.35;;
15635;SDS011;7917;50.818;6.972;2023-11-19T00:15:13;1.20;;;1.08;;
15635;SDS011;7917;50.818;6.972;2023-11-19T00:17:40;2.65;;;1.05;;
15635;SDS011;7917;50.818;6.972;2023-11-19T00:20:10;5.32;;;1.52;;
15635;SDS011;7917;50.818;6.972;2023-11-19T00:22:38;1.98;;;1.13;;
15635;SDS011;7917;50.818;6.972;2023-11-19T00:25:05;1.52;;;1.02;;
15635;SDS011;7917;50.818;6.972;2023-11-19T00:27:35;2.22;;;1.40;;
15635;SDS011;7917;50.818;6.972;2023-11-19T00:30:02;1.33;;;0.85;;
15635;SDS011;7917;50.818;6.972;2023-11-19T00:32:30;2.42;;;1.25;;
15635;SDS011;7917;50.818;6.972;2023-11-19T00:34:57;1.83;;;1.10;;
15635;SDS011;7917;50.818;6.972;2023-11-19T00:37:24;2.30;;;1.15;;
15635;SDS011;7917;50.818;6.972;2023-11-19T00:40:06;2.15;;;1.25;;
15635;SDS011;7917;50.818;6.972;2023-11-19T00:42:36;2.03;;;1.40;;
15635;SDS011;7917;50.818;6.972;2023-11-19T00:45:04;1.38;;;1.15;;
15635;SDS011;7917;50.818;6.972;2023-11-19T00:47:33;6.28;;;1.30;;
15635;SDS011;7917;50.818;6.972;2023-11-19T00:50:00;1.70;;;1.20;;
15635;SDS011;7917;50.818;6.972;2023-11-19T00:52:27;3.53;;;1.02;;
15635;SDS011;7917;50.818;6.972;2023-11-19T00:54:55;1.15;;;0.60;;
15635;SDS011;7917;50.818;6.972;2023-11-19T00:57:22;1.90;;;0.60;;
15635;SDS011;7917;50.818;6.972;2023-11-19T00:59:50;0.77;;;0.50;;
15635;SDS011;7917;50.818;6.972;2023-11-19T01:02:18;0.80;;;0.60;;
15635;SDS011;7917;50.818;6.972;2023-11-19T01:04:46;1.13;;;0.70;;
15635;SDS011;7917;50.818;6.972;2023-11-19T01:07:13;1.23;;;0.85;;
15635;SDS011;7917;50.818;6.972;2023-11-19T01:09:41;0.98;;;0.82;;
15635;SDS011;7917;50.818;6.972;2023-11-19T01:12:08;0.70;;;0.70;;
15635;SDS011;7917;50.818;6.972;2023-11-19T01:14:36;3.38;;;0.68;;
15635;SDS011;7917;50.818;6.972;2023-11-19T01:17:04;2.55;;;0.45;;
15635;SDS011;7917;50.818;6.972;2023-11-19T01:19:31;1.45;;;0.63;;
15635;SDS011;7917;50.818;6.972;2023-11-19T01:21:59;3.00;;;0.45;;
15635;SDS011;7917;50.818;6.972;2023-11-19T01:24:27;2.28;;;0.50;;
15635;SDS011;7917;50.818;6.972;2023-11-19T01:26:54;1.38;;;0.50;;
15635;SDS011;7917;50.818;6.972;2023-11-19T01:29:22;2.05;;;0.52;;
15635;SDS011;7917;50.818;6.972;2023-11-19T01:31:49;1.65;;;0.60;;
15635;SDS011;7917;50.818;6.972;2023-11-19T01:34:17;0.65;;;0.40;;
15635;SDS011;7917;50.818;6.972;2023-11-19T01:36:46;1.90;;;0.60;;
15635;SDS011;7917;50.818;6.972;2023-11-19T01:39:14;0.82;;;0.50;;
15635;SDS011;7917;50.818;6.972;2023-11-19T01:41:42;0.98;;;0.50;;
15635;SDS011;7917;50.818;6.972;2023-11-19T01:44:08;0.80;;;0.47;;
15635;SDS011;7917;50.818;6.972;2023-11-19T01:46:37;0.55;;;0.40;;
15635;SDS011;7917;50.818;6.972;2023-11-19T01:49:06;2.28;;;0.50;;
15635;SDS011;7917;50.818;6.972;2023-11-19T01:51:35;1.80;;;0.40;;
15635;SDS011;7917;50.818;6.972;2023-11-19T01:54:02;0.95;;;0.47;;
15635;SDS011;7917;50.818;6.972;2023-11-19T01:56:29;1.40;;;0.50;;
15635;SDS011;7917;50.818;6.972;2023-11-19T01:58:58;1.92;;;0.45;;
15635;SDS011;7917;50.818;6.972;2023-11-19T02:01:25;1.33;;;0.35;;
15635;SDS011;7917;50.818;6.972;2023-11-19T02:03:52;4.25;;;0.68;;
15635;SDS011;7917;50.818;6.972;2023-11-19T02:06:19;2.15;;;0.35;;
15635;SDS011;7917;50.818;6.972;2023-11-19T02:08:48;0.80;;;0.43;;
15635;SDS011;7917;50.818;6.972;2023-11-19T02:11:15;1.98;;;0.52;;
15635;SDS011;7917;50.818;6.972;2023-11-19T02:13:42;0.73;;;0.60;;
15635;SDS011;7917;50.818;6.972;2023-11-19T02:16:10;0.95;;;0.40;;
15635;SDS011;7917;50.818;6.972;2023-11-19T02:18:36;0.68;;;0.40;;
15635;SDS011;7917;50.818;6.972;2023-11-19T02:21:04;1.05;;;0.70;;
15635;SDS011;7917;50.818;6.972;2023-11-19T02:23:31;1.38;;;0.80;;
15635;SDS011;7917;50.818;6.972;2023-11-19T02:26:01;1.70;;;0.70;;
15635;SDS011;7917;50.818;6.972;2023-11-19T02:28:34;1.85;;;0.80;;
15635;SDS011;7917;50.818;6.972;2023-11-19T02:31:02;2.15;;;0.70;;
15635;SDS011;7917;50.818;6.972;2023-11-19T02:33:30;2.47;;;0.77;;
15635;SDS011;7917;50.818;6.972;2023-11-19T02:35:56;2.65;;;1.00;;
15635;SDS011;7917;50.818;6.972;2023-11-19T02:38:23;2.08;;;1.38;;
15635;SDS011;7917;50.818;6.972;2023-11-19T02:40:51;7.18;;;0.93;;
15635;SDS011;7917;50.818;6.972;2023-11-19T02:43:19;3.63;;;0.82;;
15635;SDS011;7917;50.818;6.972;2023-11-19T02:45:46;7.22;;;1.20;;
15635;SDS011;7917;50.818;6.972;2023-11-19T02:48:13;9.15;;;1.35;;
15635;SDS011;7917;50.818;6.972;2023-11-19T02:50:41;6.22;;;1.40;;
15635;SDS011;7917;50.818;6.972;2023-11-19T02:53:07;4.30;;;1.30;;
15635;SDS011;7917;50.818;6.972;2023-11-19T02:55:34;12.55;;;1.92;;
15635;SDS011;7917;50.818;6.972;2023-11-19T02:58:03;7.85;;;1.80;;
15635;SDS011;7917;50.818;6.972;2023-11-19T03:00:39;5.90;;;1.70;;
15635;SDS011;7917;50.818;6.972;2023-11-19T03:03:14;6.07;;;1.65;;
15635;SDS011;7917;50.818;6.972;2023-11-19T03:05:45;5.93;;;1.75;;
15635;SDS011;7917;50.818;6.972;2023-11-19T03:08:12;9.00;;;2.65;;
15635;SDS011;7917;50.818;6.972;2023-11-19T03:10:39;6.93;;;2.35;;
15635;SDS011;7917;50.818;6.972;2023-11-19T03:13:06;9.35;;;1.92;;
15635;SDS011;7917;50.818;6.972;2023-11-19T03:15:38;12.93;;;3.42;;
15635;SDS011;7917;50.818;6.972;2023-11-19T03:18:05;13.55;;;2.28;;
15635;SDS011;7917;50.818;6.972;2023-11-19T03:20:32;8.90;;;2.83;;
15635;SDS011;7917;50.818;6.972;2023-11-19T03:22:59;11.18;;;2.63;;
15635;SDS011;7917;50.818;6.972;2023-11-19T03:25:27;9.63;;;2.42;;
15635;SDS011;7917;50.818;6.972;2023-11-19T03:27:58;8.63;;;2.47;;
15635;SDS011;7917;50.818;6.972;2023-11-19T03:30:25;11.52;;;2.00;;
15635;SDS011;7917;50.818;6.972;2023-11-19T03:32:53;9.27;;;2.20;;
15635;SDS011;7917;50.818;6.972;2023-11-19T03:35:20;10.15;;;2.45;;
15635;SDS011;7917;50.818;6.972;2023-11-19T03:37:48;13.75;;;2.65;;
15635;SDS011;7917;50.818;6.972;2023-11-19T03:40:15;14.55;;;4.07;;
15635;SDS011;7917;50.818;6.972;2023-11-19T03:42:41;15.77;;;3.28;;
15635;SDS011;7917;50.818;6.972;2023-11-19T03:45:09;8.07;;;2.08;;
15635;SDS011;7917;50.818;6.972;2023-11-19T03:47:36;10.35;;;1.90;;
15635;SDS011;7917;50.818;6.972;2023-11-19T03:50:04;12.18;;;2.55;;
15635;SDS011;7917;50.818;6.972;2023-11-19T03:52:32;11.50;;;2.30;;
15635;SDS011;7917;50.818;6.972;2023-11-19T03:55:00;8.30;;;2.28;;
15635;SDS011;7917;50.818;6.972;2023-11-19T03:57:28;9.60;;;2.53;;
15635;SDS011;7917;50.818;6.972;2023-11-19T03:59:55;10.10;;;2.20;;
15635;SDS011;7917;50.818;6.972;2023-11-19T04:05:45;11.70;;;2.05;;
15635;SDS011;7917;50.818;6.972;2023-11-19T04:08:12;7.60;;;1.80;;
15635;SDS011;7917;50.818;6.972;2023-11-19T04:10:39;6.47;;;2.97;;
15635;SDS011;7917;50.818;6.972;2023-11-19T04:13:06;9.02;;;2.38;;
15635;SDS011;7917;50.818;6.972;2023-11-19T04:15:33;7.90;;;2.17;;
15635;SDS011;7917;50.818;6.972;2023-11-19T04:17:59;5.68;;;1.45;;
15635;SDS011;7917;50.818;6.972;2023-11-19T04:20:26;8.70;;;1.60;;
15635;SDS011;7917;50.818;6.972;2023-11-19T04:22:53;9.50;;;2.08;;
15635;SDS011;7917;50.818;6.972;2023-11-19T04:25:19;7.03;;;2.05;;
15635;SDS011;7917;50.818;6.972;2023-11-19T04:27:46;6.68;;;1.88;;
15635;SDS011;7917;50.818;6.972;2023-11-19T04:30:13;8.00;;;2.20;;
15635;SDS011;7917;50.818;6.972;2023-11-19T04:32:40;10.57;;;1.90;;
15635;SDS011;7917;50.818;6.972;2023-11-19T04:35:08;7.75;;;2.08;;
15635;SDS011;7917;50.818;6.972;2023-11-19T04:37:34;5.40;;;1.75;;
15635;SDS011;7917;50.818;6.972;2023-11-19T04:40:01;7.40;;;2.00;;
15635;SDS011;7917;50.818;6.972;2023-11-19T04:42:28;8.32;;;2.25;;
15635;SDS011;7917;50.818;6.972;2023-11-19T04:44:55;7.57;;;2.08;;
15635;SDS011;7917;50.818;6.972;2023-11-19T04:47:22;10.50;;;2.50;;
15635;SDS011;7917;50.818;6.972;2023-11-19T04:49:49;8.07;;;2.05;;
15635;SDS011;7917;50.818;6.972;2023-11-19T04:52:16;8.13;;;1.85;;
15635;SDS011;7917;50.818;6.972;2023-11-19T04:54:42;6.80;;;2.28;;
15635;SDS011;7917;50.818;6.972;2023-11-19T04:57:09;9.82;;;2.40;;
15635;SDS011;7917;50.818;6.972;2023-11-19T04:59:36;7.80;;;2.08;;
15635;SDS011;7917;50.818;6.972;2023-11-19T05:02:03;6.75;;;2.25;;
15635;SDS011;7917;50.818;6.972;2023-11-19T05:04:30;14.27;;;2.20;;
15635;SDS011;7917;50.818;6.972;2023-11-19T05:06:57;9.38;;;2.35;;
15635;SDS011;7917;50.818;6.972;2023-11-19T05:09:23;9.65;;;2.50;;
15635;SDS011;7917;50.818;6.972;2023-11-19T05:11:50;7.85;;;2.47;;
15635;SDS011;7917;50.818;6.972;2023-11-19T05:14:17;11.07;;;4.18;;
15635;SDS011;7917;50.818;6.972;2023-11-19T05:16:45;8.88;;;2.53;;
15635;SDS011;7917;50.818;6.972;2023-11-19T05:19:13;15.23;;;2.85;;
15635;SDS011;7917;50.818;6.972;2023-11-19T05:21:41;14.68;;;2.70;;
15635;SDS011;7917;50.818;6.972;2023-11-19T05:24:08;12.07;;;2.53;;
15635;SDS011;7917;50.818;6.972;2023-11-19T05:26:35;12.07;;;2.42;;
15635;SDS011;7917;50.818;6.972;2023-11-19T05:29:01;14.05;;;3.75;;
15635;SDS011;7917;50.818;6.972;2023-11-19T05:31:28;8.85;;;2.15;;
15635;SDS011;7917;50.818;6.972;2023-11-19T05:33:55;15.45;;;2.55;;
15635;SDS011;7917;50.818;6.972;2023-11-19T05:36:22;16.02;;;3.50;;
15635;SDS011;7917;50.818;6.972;2023-11-19T05:38:49;15.90;;;2.60;;
15635;SDS011;7917;50.818;6.972;2023-11-19T05:41:16;14.05;;;3.50;;
15635;SDS011;7917;50.818;6.972;2023-11-19T05:43:42;10.68;;;3.15;;
15635;SDS011;7917;50.818;6.972;2023-11-19T05:46:09;14.55;;;2.80;;
15635;SDS011;7917;50.818;6.972;2023-11-19T05:48:36;14.15;;;3.30;;
15635;SDS011;7917;50.818;6.972;2023-11-19T05:51:03;18.17;;;3.45;;
15635;SDS011;7917;50.818;6.972;2023-11-19T05:53:31;12.40;;;2.65;;
15635;SDS011;7917;50.818;6.972;2023-11-19T05:55:58;10.75;;;2.58;;
15635;SDS011;7917;50.818;6.972;2023-11-19T05:58:29;15.90;;;3.08;;
15635;SDS011;7917;50.818;6.972;2023-11-19T06:00:56;11.98;;;2.72;;
15635;SDS011;7917;50.818;6.972;2023-11-19T06:03:22;19.33;;;3.65;;
15635;SDS011;7917;50.818;6.972;2023-11-19T06:05:48;12.30;;;2.72;;
15635;SDS011;7917;50.818;6.972;2023-11-19T06:08:15;15.82;;;3.20;;
15635;SDS011;7917;50.818;6.972;2023-11-19T06:10:44;13.88;;;3.72;;
15635;SDS011;7917;50.818;6.972;2023-11-19T06:13:11;16.38;;;3.47;;
15635;SDS011;7917;50.818;6.972;2023-11-19T06:15:40;16.23;;;3.58;;
15635;SDS011;7917;50.818;6.972;2023-11-19T06:18:06;19.60;;;3.03;;
15635;SDS011;7917;50.818;6.972;2023-11-19T06:20:33;12.73;;;3.33;;
15635;SDS011;7917;50.818;6.972;2023-11-19T06:23:00;17.67;;;3.28;;
15635;SDS011;7917;50.818;6.972;2023-11-19T06:25:27;18.05;;;4.50;;
15635;SDS011;7917;50.818;6.972;2023-11-19T06:27:54;21.13;;;6.28;;
15635;SDS011;7917;50.818;6.972;2023-11-19T06:30:22;18.38;;;3.30;;
15635;SDS011;7917;50.818;6.972;2023-11-19T06:32:49;17.15;;;3.45;;
15635;SDS011;7917;50.818;6.972;2023-11-19T06:35:15;12.85;;;3.50;;
15635;SDS011;7917;50.818;6.972;2023-11-19T06:37:44;17.88;;;4.10;;
15635;SDS011;7917;50.818;6.972;2023-11-19T06:40:11;15.27;;;3.63;;
15635;SDS011;7917;50.818;6.972;2023-11-19T06:42:41;13.13;;;3.42;;
15635;SDS011;7917;50.818;6.972;2023-11-19T06:45:08;23.45;;;5.55;;
15635;SDS011;7917;50.818;6.972;2023-11-19T06:47:35;19.80;;;2.92;;
15635;SDS011;7917;50.818;6.972;2023-11-19T06:50:02;20.95;;;4.47;;
15635;SDS011;7917;50.818;6.972;2023-11-19T06:52:31;15.13;;;3.00;;
15635;SDS011;7917;50.818;6.972;2023-11-19T06:54:58;19.85;;;3.65;;
15635;SDS011;7917;50.818;6.972;2023-11-19T06:57:24;19.05;;;3.25;;
15635;SDS011;7917;50.818;6.972;2023-11-19T06:59:51;17.17;;;3.67;;
15635;SDS011;7917;50.818;6.972;2023-11-19T07:02:18;20.20;;;3.42;;
15635;SDS011;7917;50.818;6.972;2023-11-19T07:04:46;14.35;;;3.78;;
15635;SDS011;7917;50.818;6.972;2023-11-19T07:07:12;18.42;;;3.67;;
15635;SDS011;7917;50.818;6.972;2023-11-19T07:09:40;12.18;;;3.22;;
15635;SDS011;7917;50.818;6.972;2023-11-19T07:12:08;15.18;;;3.00;;
15635;SDS011;7917;50.818;6.972;2023-11-19T07:14:35;15.55;;;3.50;;
15635;SDS011;7917;50.818;6.972;2023-11-19T07:17:02;19.48;;;4.57;;
15635;SDS011;7917;50.818;6.972;2023-11-19T07:19:29;19.63;;;3.60;;
15635;SDS011;7917;50.818;6.972;2023-11-19T07:21:56;13.95;;;3.42;;
15635;SDS011;7917;50.818;6.972;2023-11-19T07:24:23;15.02;;;3.60;;
15635;SDS011;7917;50.818;6.972;2023-11-19T07:26:50;18.08;;;3.95;;
15635;SDS011;7917;50.818;6.972;2023-11-19T07:29:17;19.80;;;3.60;;
15635;SDS011;7917;50.818;6.972;2023-11-19T07:31:44;14.38;;;3.15;;
15635;SDS011;7917;50.818;6.972;2023-11-19T07:34:10;15.35;;;3.22;;
15635;SDS011;7917;50.818;6.972;2023-11-19T07:36:38;14.35;;;2.97;;
15635;SDS011;7917;50.818;6.972;2023-11-19T07:39:04;21.33;;;3.42;;
15635;SDS011;7917;50.818;6.972;2023-11-19T07:41:31;21.08;;;4.28;;
15635;SDS011;7917;50.818;6.972;2023-11-19T07:43:57;14.43;;;3.22;;
15635;SDS011;7917;50.818;6.972;2023-11-19T07:46:24;15.98;;;3.20;;
15635;SDS011;7917;50.818;6.972;2023-11-19T07:48:52;16.42;;;3.05;;
15635;SDS011;7917;50.818;6.972;2023-11-19T07:51:20;13.75;;;2.88;;
15635;SDS011;7917;50.818;6.972;2023-11-19T07:53:47;16.67;;;3.15;;
15635;SDS011;7917;50.818;6.972;2023-11-19T07:56:14;19.25;;;3.53;;
15635;SDS011;7917;50.818;6.972;2023-11-19T07:58:41;16.92;;;4.63;;
15635;SDS011;7917;50.818;6.972;2023-11-19T08:01:09;18.25;;;3.72;;
15635;SDS011;7917;50.818;6.972;2023-11-19T08:03:35;18.15;;;3.83;;
15635;SDS011;7917;50.818;6.972;2023-11-19T08:06:03;14.90;;;3.15;;
15635;SDS011;7917;50.818;6.972;2023-11-19T08:08:32;16.20;;;4.10;;
15635;SDS011;7917;50.818;6.972;2023-11-19T08:11:00;13.60;;;3.45;;
15635;SDS011;7917;50.818;6.972;2023-11-19T08:13:27;13.43;;;3.55;;
15635;SDS011;7917;50.818;6.972;2023-11-19T08:15:54;28.48;;;4.35;;
15635;SDS011;7917;50.818;6.972;2023-11-19T08:18:21;16.20;;;3.13;;
15635;SDS011;7917;50.818;6.972;2023-11-19T08:20:48;19.42;;;3.72;;
15635;SDS011;7917;50.818;6.972;2023-11-19T08:23:18;19.45;;;4.32;;
15635;SDS011;7917;50.818;6.972;2023-11-19T08:25:44;17.33;;;4.03;;
15635;SDS011;7917;50.818;6.972;2023-11-19T08:28:12;20.20;;;4.47;;
15635;SDS011;7917;50.818;6.972;2023-11-19T08:30:39;17.27;;;3.45;;
15635;SDS011;7917;50.818;6.972;2023-11-19T08:33:05;20.88;;;3.83;;
15635;SDS011;7917;50.818;6.972;2023-11-19T08:35:32;15.80;;;4.57;;
15635;SDS011;7917;50.818;6.972;2023-11-19T08:38:00;19.05;;;3.97;;
15635;SDS011;7917;50.818;6.972;2023-11-19T08:40:27;19.55;;;3.10;;
15635;SDS011;7917;50.818;6.972;2023-11-19T08:42:55;16.23;;;3.97;;
15635;SDS011;7917;50.818;6.972;2023-11-19T08:45:22;12.82;;;3.35;;
15635;SDS011;7917;50.818;6.972;2023-11-19T08:47:49;19.88;;;4.28;;
15635;SDS011;7917;50.818;6.972;2023-11-19T08:50:16;21.50;;;3.95;;
15635;SDS011;7917;50.818;6.972;2023-11-19T08:52:43;22.77;;;5.32;;
15635;SDS011;7917;50.818;6.972;2023-11-19T08:55:10;15.90;;;3.30;;
15635;SDS011;7917;50.818;6.972;2023-11-19T08:57:38;21.10;;;4.32;;
15635;SDS011;7917;50.818;6.972;2023-11-19T09:00:05;16.50;;;3.95;;
15635;SDS011;7917;50.818;6.972;2023-11-19T09:02:34;28.73;;;3.88;;
15635;SDS011;7917;50.818;6.972;2023-11-19T09:05:02;15.38;;;4.22;;
15635;SDS011;7917;50.818;6.972;2023-11-19T09:07:29;18.45;;;4.47;;
15635;SDS011;7917;50.818;6.972;2023-11-19T09:09:55;13.68;;;3.92;;
15635;SDS011;7917;50.818;6.972;2023-11-19T09:12:22;15.95;;;3.55;;
15635;SDS011;7917;50.818;6.972;2023-11-19T09:14:50;21.15;;;5.10;;
15635;SDS011;7917;50.818;6.972;2023-11-19T09:17:20;21.98;;;4.00;;
15635;SDS011;7917;50.818;6.972;2023-11-19T09:19:48;20.70;;;3.17;;
15635;SDS011;7917;50.818;6.972;2023-11-19T09:22:16;17.60;;;4.00;;
15635;SDS011;7917;50.818;6.972;2023-11-19T09:24:43;25.05;;;3.97;;
15635;SDS011;7917;50.818;6.972;2023-11-19T09:27:10;23.63;;;4.35;;
15635;SDS011;7917;50.818;6.972;2023-11-19T09:29:37;22.73;;;3.83;;
15635;SDS011;7917;50.818;6.972;2023-11-19T09:32:05;19.67;;;3.70;;
15635;SDS011;7917;50.818;6.972;2023-11-19T09:34:33;22.00;;;4.30;;
15635;SDS011;7917;50.818;6.972;2023-11-19T09:37:00;17.35;;;4.63;;
15635;SDS011;7917;50.818;6.972;2023-11-19T09:39:28;23.45;;;4.07;;
15635;SDS011;7917;50.818;6.972;2023-11-19T09:41:55;22.10;;;4.05;;
15635;SDS011;7917;50.818;6.972;2023-11-19T09:44:23;17.35;;;3.92;;
15635;SDS011;7917;50.818;6.972;2023-11-19T09:46:51;20.38;;;4.00;;
15635;SDS011;7917;50.818;6.972;2023-11-19T09:49:19;20.00;;;4.10;;
15635;SDS011;7917;50.818;6.972;2023-11-19T09:51:50;16.25;;;3.50;;
15635;SDS011;7917;50.818;6.972;2023-11-19T09:54:18;25.55;;;5.75;;
15635;SDS011;7917;50.818;6.972;2023-11-19T09:56:46;23.83;;;4.05;;
15635;SDS011;7917;50.818;6.972;2023-11-19T09:59:14;26.20;;;4.75;;
15635;SDS011;7917;50.818;6.972;2023-11-19T10:01:40;21.45;;;4.07;;
15635;SDS011;7917;50.818;6.972;2023-11-19T10:04:08;15.63;;;4.07;;
15635;SDS011;7917;50.818;6.972;2023-11-19T10:06:38;17.17;;;4.10;;
15635;SDS011;7917;50.818;6.972;2023-11-19T10:09:05;21.60;;;3.78;;
15635;SDS011;7917;50.818;6.972;2023-11-19T10:11:33;16.98;;;4.15;;
15635;SDS011;7917;50.818;6.972;2023-11-19T10:14:00;17.45;;;3.40;;
15635;SDS011;7917;50.818;6.972;2023-11-19T10:16:30;22.55;;;3.72;;
15635;SDS011;7917;50.818;6.972;2023-11-19T10:19:00;20.40;;;4.65;;
15635;SDS011;7917;50.818;6.972;2023-11-19T10:21:27;18.73;;;4.00;;
15635;SDS011;7917;50.818;6.972;2023-11-19T10:23:58;19.45;;;3.92;;
15635;SDS011;7917;50.818;6.972;2023-11-19T10:26:26;14.73;;;3.47;;
15635;SDS011;7917;50.818;6.972;2023-11-19T10:28:54;14.63;;;2.22;;
15635;SDS011;7917;50.818;6.972;2023-11-19T10:31:21;14.90;;;3.83;;
15635;SDS011;7917;50.818;6.972;2023-11-19T10:33:50;18.42;;;3.55;;
15635;SDS011;7917;50.818;6.972;2023-11-19T10:36:17;17.85;;;3.75;;
15635;SDS011;7917;50.818;6.972;2023-11-19T10:38:51;20.83;;;3.22;;
15635;SDS011;7917;50.818;6.972;2023-11-19T10:41:26;19.02;;;3.40;;
15635;SDS011;7917;50.818;6.972;2023-11-19T10:43:55;16.92;;;3.88;;
15635;SDS011;7917;50.818;6.972;2023-11-19T10:46:21;18.15;;;3.75;;
15635;SDS011;7917;50.818;6.972;2023-11-19T10:48:48;18.08;;;3.92;;
15635;SDS011;7917;50.818;6.972;2023-11-19T10:51:17;16.48;;;4.05;;
15635;SDS011;7917;50.818;6.972;2023-11-19T10:53:47;16.67;;;3.83;;
15635;SDS011;7917;50.818;6.972;2023-11-19T10:56:16;14.88;;;3.38;;
15635;SDS011;7917;50.818;6.972;2023-11-19T10:58:51;15.70;;;3.20;;
15635;SDS011;7917;50.818;6.972;2023-11-19T11:01:20;18.60;;;3.53;;
15635;SDS011;7917;50.818;6.972;2023-11-19T11:03:50;16.40;;;3.88;;
15635;SDS011;7917;50.818;6.972;2023-11-19T11:06:19;20.60;;;3.85;;
15635;SDS011;7917;50.818;6.972;2023-11-19T11:08:48;15.57;;;3.03;;
15635;SDS011;7917;50.818;6.972;2023-11-19T11:11:19;12.77;;;3.30;;
15635;SDS011;7917;50.818;6.972;2023-11-19T11:13:48;17.15;;;3.83;;
15635;SDS011;7917;50.818;6.972;2023-11-19T11:16:17;16.83;;;3.20;;
15635;SDS011;7917;50.818;6.972;2023-11-19T11:18:46;17.92;;;4.05;;
15635;SDS011;7917;50.818;6.972;2023-11-19T11:21:15;18.45;;;4.05;;
15635;SDS011;7917;50.818;6.972;2023-11-19T11:23:53;16.25;;;3.15;;
15635;SDS011;7917;50.818;6.972;2023-11-19T11:26:39;22.30;;;4.38;;
15635;SDS011;7917;50.818;6.972;2023-11-19T11:29:30;18.83;;;3.28;;
15635;SDS011;7917;50.818;6.972;2023-11-19T11:32:06;13.23;;;2.63;;
15635;SDS011;7917;50.818;6.972;2023-11-19T11:34:55;13.73;;;2.35;;
15635;SDS011;7917;50.818;6.972;2023-11-19T11:37:35;13.82;;;2.92;;
15635;SDS011;7917;50.818;6.972;2023-11-19T11:40:05;14.57;;;3.08;;
15635;SDS011;7917;50.818;6.972;2023-11-19T11:42:39;14.45;;;2.70;;
15635;SDS011;7917;50.818;6.972;2023-11-19T11:45:08;13.25;;;3.28;;
15635;SDS011;7917;50.818;6.972;2023-11-19T11:50:53;13.25;;;2.63;;
15635;SDS011;7917;50.818;6.972;2023-11-19T11:53:25;12.45;;;2.78;;
15635;SDS011;7917;50.818;6.972;2023-11-19T11:55:57;12.35;;;2.90;;
15635;SDS011;7917;50.818;6.972;2023-11-19T11:58:35;8.23;;;2.35;;
15635;SDS011;7917;50.818;6.972;2023-11-19T12:01:04;12.32;;;3.35;;
15635;SDS011;7917;50.818;6.972;2023-11-19T12:03:34;13.65;;;2.95;;
15635;SDS011;7917;50.818;6.972;2023-11-19T12:06:04;7.35;;;2.30;;
15635;SDS011;7917;50.818;6.972;2023-11-19T12:08:33;11.30;;;2.85;;
15635;SDS011;7917;50.818;6.972;2023-11-19T12:11:02;12.88;;;2.83;;
15635;SDS011;7917;50.818;6.972;2023-11-19T12:16:14;10.30;;;2.50;;
15635;SDS011;7917;50.818;6.972;2023-11-19T12:18:41;14.50;;;2.55;;
15635;SDS011;7917;50.818;6.972;2023-11-19T12:21:09;11.15;;;2.35;;
15635;SDS011;7917;50.818;6.972;2023-11-19T12:23:44;15.75;;;3.33;;
15635;SDS011;7917;50.818;6.972;2023-11-19T12:26:32;12.68;;;2.85;;
15635;SDS011;7917;50.818;6.972;2023-11-19T12:29:01;12.88;;;3.00;;
15635;SDS011;7917;50.818;6.972;2023-11-19T12:31:32;18.85;;;3.65;;
15635;SDS011;7917;50.818;6.972;2023-11-19T12:34:05;14.05;;;3.08;;
15635;SDS011;7917;50.818;6.972;2023-11-19T12:36:38;14.88;;;3.22;;
15635;SDS011;7917;50.818;6.972;2023-11-19T12:39:07;13.75;;;3.35;;
15635;SDS011;7917;50.818;6.972;2023-11-19T12:41:48;12.35;;;3.45;;
15635;SDS011;7917;50.818;6.972;2023-11-19T12:44:16;10.27;;;2.60;;
15635;SDS011;7917;50.818;6.972;2023-11-19T12:46:44;11.75;;;2.55;;
15635;SDS011;7917;50.818;6.972;2023-11-19T12:49:13;11.65;;;2.85;;
15635;SDS011;7917;50.818;6.972;2023-11-19T12:51:41;13.73;;;2.88;;
15635;SDS011;7917;50.818;6.972;2023-11-19T12:54:08;15.65;;;2.85;;
15635;SDS011;7917;50.818;6.972;2023-11-19T12:56:35;11.32;;;2.50;;
15635;SDS011;7917;50.818;6.972;2023-11-19T12:59:12;9.27;;;2.08;;
15635;SDS011;7917;50.818;6.972;2023-11-19T13:01:39;12.23;;;2.72;;
15635;SDS011;7917;50.818;6.972;2023-11-19T13:04:17;11.52;;;2.22;;
15635;SDS011;7917;50.818;6.972;2023-11-19T13:06:45;13.70;;;2.45;;
15635;SDS011;7917;50.818;6.972;2023-11-19T13:09:21;6.35;;;1.67;;
15635;SDS011;7917;50.818;6.972;2023-11-19T13:11:49;10.05;;;2.35;;
15635;SDS011;7917;50.818;6.972;2023-11-19T13:14:17;11.35;;;2.42;;
15635;SDS011;7917;50.818;6.972;2023-11-19T13:16:44;11.57;;;2.17;;
15635;SDS011;7917;50.818;6.972;2023-11-19T13:19:11;11.13;;;2.65;;
15635;SDS011;7917;50.818;6.972;2023-11-19T13:21:38;11.75;;;2.63;;
15635;SDS011;7917;50.818;6.972;2023-11-19T13:24:07;12.15;;;2.33;;
15635;SDS011;7917;50.818;6.972;2023-11-19T13:26:35;8.02;;;2.22;;
15635;SDS011;7917;50.818;6.972;2023-11-19T13:29:01;15.50;;;2.35;;
15635;SDS011;7917;50.818;6.972;2023-11-19T13:31:29;10.55;;;2.75;;
15635;SDS011;7917;50.818;6.972;2023-11-19T13:33:56;14.35;;;2.70;;
15635;SDS011;7917;50.818;6.972;2023-11-19T13:36:23;10.98;;;2.40;;
15635;SDS011;7917;50.818;6.972;2023-11-19T13:38:51;10.10;;;2.80;;
15635;SDS011;7917;50.818;6.972;2023-11-19T13:41:24;17.83;;;2.63;;
15635;SDS011;7917;50.818;6.972;2023-11-19T13:43:51;12.88;;;3.03;;
15635;SDS011;7917;50.818;6.972;2023-11-19T13:46:18;16.00;;;3.05;;
15635;SDS011;7917;50.818;6.972;2023-11-19T13:48:45;14.90;;;3.03;;
15635;SDS011;7917;50.818;6.972;2023-11-19T13:51:15;14.48;;;3.08;;
15635;SDS011;7917;50.818;6.972;2023-11-19T13:53:42;14.70;;;4.78;;
15635;SDS011;7917;50.818;6.972;2023-11-19T13:56:09;12.82;;;3.13;;
15635;SDS011;7917;50.818;6.972;2023-11-19T13:58:37;16.35;;;3.53;;
15635;SDS011;7917;50.818;6.972;2023-11-19T14:01:06;15.30;;;3.47;;
15635;SDS011;7917;50.818;6.972;2023-11-19T14:03:34;16.35;;;3.33;;
15635;SDS011;7917;50.818;6.972;2023-11-19T14:06:00;10.82;;;3.33;;
15635;SDS011;7917;50.818;6.972;2023-11-19T14:08:28;16.88;;;3.70;;
15635;SDS011;7917;50.818;6.972;2023-11-19T14:10:55;14.48;;;3.40;;
15635;SDS011;7917;50.818;6.972;2023-11-19T14:13:22;11.40;;;2.50;;
15635;SDS011;7917;50.818;6.972;2023-11-19T14:15:51;14.20;;;3.30;;
15635;SDS011;7917;50.818;6.972;2023-11-19T14:18:18;16.95;;;3.70;;
15635;SDS011;7917;50.818;6.972;2023-11-19T14:20:45;15.55;;;3.17;;
15635;SDS011;7917;50.818;6.972;2023-11-19T14:23:13;13.43;;;2.78;;
15635;SDS011;7917;50.818;6.972;2023-11-19T14:25:40;15.48;;;3.58;;
15635;SDS011;7917;50.818;6.972;2023-11-19T14:28:07;15.32;;;3.00;;
15635;SDS011;7917;50.818;6.972;2023-11-19T14:30:34;14.80;;;2.67;;
15635;SDS011;7917;50.818;6.972;2023-11-19T14:33:02;20.95;;;3.05;;
15635;SDS011;7917;50.818;6.972;2023-11-19T14:35:30;10.27;;;2.70;;
15635;SDS011;7917;50.818;6.972;2023-11-19T14:37:58;7.70;;;2.42;;
15635;SDS011;7917;50.818;6.972;2023-11-19T14:40:26;17.77;;;3.55;;
15635;SDS011;7917;50.818;6.972;2023-11-19T14:42:53;9.25;;;2.22;;
15635;SDS011;7917;50.818;6.972;2023-11-19T14:45:20;12.45;;;3.22;;
15635;SDS011;7917;50.818;6.972;2023-11-19T14:47:48;10.45;;;2.42;;
15635;SDS011;7917;50.818;6.972;2023-11-19T14:50:15;16.13;;;2.50;;
15635;SDS011;7917;50.818;6.972;2023-11-19T14:52:43;13.77;;;3.53;;
15635;SDS011;7917;50.818;6.972;2023-11-19T14:55:10;14.73;;;3.00;;
15635;SDS011;7917;50.818;6.972;2023-11-19T14:57:37;14.05;;;2.85;;
15635;SDS011;7917;50.818;6.972;2023-11-19T15:00:05;14.15;;;2.95;;
15635;SDS011;7917;50.818;6.972;2023-11-19T15:02:39;14.52;;;3.13;;
15635;SDS011;7917;50.818;6.972;2023-11-19T15:05:06;12.70;;;3.42;;
15635;SDS011;7917;50.818;6.972;2023-11-19T15:07:37;11.38;;;3.28;;